Latest Weather Observations for Fowlers Gap

IDN60801

Issued at 6:02 am EST Sunday 2 August 2015 (issued every 30 minutes, with the page automatically refreshed every 10 minutes)

About weather observations | Map of weather stations | Latest weather observations for NSW | Other Formats
Station Details ID: 046128 Name: FOWLERS GAP AWS Lat: -31.09 Lon: 141.70 Height: 181.0 m
Data from the previous 72 hours. | See also: Recent months at Fowlers Gap
Date/Time
EST
Temp
°C
App
Temp
°C
Dew
Point
Rel
Hum
%
Delta-T
°C
Wind Press
QNH
hPa
Press
MSL
hPa
Rain
since 9 am
mm
Dir
 
Spd
km/h
Gust
km/h
Spd
kts
Gust
kts
02/06:00am 9.7 4.6 7.5 86 1.1 SSE 24 37 13 20 1014.7 1014.8 0.0
02/05:30am 9.8 4.4 7.9 88 0.9 SSE 26 39 14 21 1014.6 1014.6 0.0
02/05:00am 10.6 5.2 8.0 84 1.3 SSE 26 37 14 20 1014.0 1014.0 0.0
02/04:30am 11.3 7.3 8.3 82 1.5 SSE 19 24 10 13 1013.5 1013.5 0.0
02/04:07am 12.4 7.8 6.5 67 2.8 S 20 39 11 21 1013.5 1013.5 0.0
02/04:00am 12.7 9.5 2.8 51 4.4 S 9 15 5 8 1013.3 1013.3 0.0
02/03:30am 13.6 10.7 2.8 48 4.8 NW 7 13 4 7 1012.8 1012.8 0.0
02/03:00am 16.1 11.8 3.5 43 5.8 WNW 15 20 8 11 1012.7 1012.7 0.0
02/02:30am 17.6 11.9 3.1 38 6.7 NNW 22 28 12 15 1012.4 1012.4 0.0
02/02:00am 17.8 12.7 3.3 38 6.8 NNW 19 26 10 14 1012.9 1012.9 0.0
02/01:30am 17.4 11.7 2.6 37 6.8 NW 22 30 12 16 1013.0 1013.0 0.0
02/01:00am 18.0 12.6 2.3 35 7.2 NW 20 30 11 16 1013.1 1013.1 0.0
02/12:30am 19.4 13.6 2.3 32 7.9 NNW 22 32 12 17 1013.1 1013.1 0.0
02/12:00am 20.4 14.2 2.3 30 8.5 NNW 24 35 13 19 1013.2 1013.2 0.0
 
Date/Time
EST
Temp
°C
App
Temp
°C
Dew
Point
Rel
Hum
%
Delta-T
°C
Wind Press
QNH
hPa
Press
MSL
hPa
Rain
since 9 am
mm
Dir
 
Spd
km/h
Gust
km/h
Spd
kts
Gust
kts
01/11:30pm 21.0 14.7 1.8 28 8.9 NNW 24 33 13 18 1013.2 1013.2 0.0
01/11:00pm 21.3 14.5 1.0 26 9.3 NNW 26 35 14 19 1013.2 1013.2 0.0
01/10:30pm 21.5 14.6 0.1 24 9.7 NNW 26 35 14 19 1013.4 1013.4 0.0
01/10:00pm 21.2 15.0 -0.1 24 9.6 N 22 28 12 15 1013.7 1013.7 0.0
01/09:30pm 21.0 14.8 -0.3 24 9.5 N 22 28 12 15 1013.8 1013.8 0.0
01/09:00pm 20.9 14.7 -0.4 24 9.5 N 22 28 12 15 1013.9 1013.9 0.0
01/08:30pm 21.2 15.4 -0.1 24 9.6 N 20 26 11 14 1014.0 1014.0 0.0
01/08:00pm 21.2 16.0 0.4 25 9.4 NNW 17 20 9 11 1014.2 1014.2 0.0
01/07:30pm 21.7 16.6 0.8 25 9.6 NNW 17 24 9 13 1013.9 1013.9 0.0
01/07:00pm 21.7 16.6 0.8 25 9.6 N 17 19 9 10 1013.7 1013.7 0.0
01/06:30pm 22.8 18.4 0.6 23 10.2 N 13 17 7 9 1013.7 1013.7 0.0
01/06:00pm 24.6 19.0 0.2 20 11.3 NNW 19 28 10 15 1013.7 1013.7 0.0
01/05:30pm 25.8 19.3 0.5 19 11.9 NNW 24 35 13 19 1013.5 1013.5 0.0
01/05:00pm 26.3 19.4 0.1 18 12.3 NNW 26 37 14 20 1013.4 1013.4 0.0
01/04:30pm 26.3 19.0 0.1 18 12.3 NW 28 41 15 22 1013.5 1013.5 0.0
01/04:00pm 26.6 19.6 -0.4 17 12.6 NW 26 39 14 21 1013.7 1013.7 0.0
01/03:30pm 26.7 19.1 -2.1 15 13.0 NW 28 37 15 20 1013.9 1013.9 0.0
01/03:14pm 26.3 18.9 -0.7 17 12.5 NW 28 46 15 25 1014.0 1014.0 0.0
01/03:00pm 26.5 18.3 -1.3 16 12.7 NW 32 43 17 23 1014.0 1014.0 0.0
01/02:30pm 26.5 18.5 -2.2 15 12.9 NW 30 41 16 22 1014.4 1014.4 0.0
01/02:00pm 26.2 18.1 -3.4 14 13.0 NW 30 39 16 21 1014.7 1014.8 0.0
01/01:30pm 26.0 16.8 -4.5 13 13.1 NW 35 48 19 26 1015.2 1015.2 0.0
01/01:00pm 25.6 17.7 -4.8 13 13.0 NW 28 43 15 23 1015.6 1015.6 0.0
01/12:30pm 25.0 16.7 -5.3 13 12.7 NW 30 37 16 20 1016.4 1016.4 0.0
01/12:00pm 24.5 16.1 -5.7 13 12.5 NW 30 37 16 20 1017.0 1017.0 0.0
01/11:30am 24.0 15.6 -6.1 13 12.3 NW 30 41 16 22 1017.2 1017.2 0.0
01/11:00am 22.4 14.8 -5.5 15 11.4 NNW 26 35 14 19 1017.3 1017.3 0.0
01/10:30am 21.0 13.0 -5.7 16 10.7 NNW 28 37 15 20 1017.4 1017.4 0.0
01/10:00am 20.2 12.2 -5.6 17 10.3 NNW 28 44 15 24 1017.4 1017.4 0.0
01/09:30am 18.9 11.3 -5.9 18 9.7 NNW 26 37 14 20 1017.4 1017.6 0.0
01/09:00am 17.6 11.1 -6.3 19 9.1 NNW 20 30 11 16 1017.5 1017.7 0.0
01/08:30am 16.6 9.7 -6.4 20 8.7 NNW 22 32 12 17 1017.2 1017.3 0.0
01/08:00am 16.2 8.1 -6.8 20 8.6 NNW 28 35 15 19 1016.7 1016.8 0.0
01/07:30am 15.4 8.4 -7.4 20 8.3 NNW 22 30 12 16 1016.6 1016.7 0.0
01/07:00am 15.5 9.1 -7.3 20 8.3 NNW 19 28 10 15 1016.6 1016.7 0.0
01/06:30am 15.7 7.9 -7.8 19 8.5 NNW 26 35 14 19 1016.1 1016.2 0.0
01/06:00am 15.6 8.2 -7.9 19 8.5 NNW 24 32 13 17 1015.9 1016.0 0.0
01/05:30am 15.3 8.3 -7.5 20 8.3 N 22 32 12 17 1015.9 1016.0 0.0
01/05:00am 14.9 8.3 -6.6 22 7.9 NNW 20 26 11 14 1016.3 1016.4 0.0
01/04:30am 14.7 8.4 -6.2 23 7.8 NNW 19 24 10 13 1016.4 1016.5 0.0
01/04:00am 15.5 8.6 -6.1 22 8.1 NNW 22 28 12 15 1016.5 1016.6 0.0
01/03:30am 14.5 8.7 -4.2 27 7.2 NNW 17 20 9 11 1017.0 1017.1 0.0
01/03:00am 14.6 8.6 -3.2 29 7.0 NNW 19 24 10 13 1017.2 1017.3 0.0
01/02:30am 14.7 8.5 -3.1 29 7.1 NNW 20 26 11 14 1017.3 1017.5 0.0
01/02:00am 14.3 9.1 -3.0 30 6.8 NNW 15 19 8 10 1017.8 1018.0 0.0
01/01:30am 15.1 9.9 -2.8 29 7.2 NNW 15 20 8 11 1017.9 1018.1 0.0
01/01:00am 15.7 10.5 -2.7 28 7.4 NNW 15 20 8 11 1018.0 1018.2 0.0
01/12:30am 15.4 9.5 -2.5 29 7.3 N 19 24 10 13 1018.0 1018.2 0.0
01/12:00am 15.0 9.9 -2.0 31 6.9 NNW 15 19 8 10 1018.4 1018.6 0.0
 
Date/Time
EST
Temp
°C
App
Temp
°C
Dew
Point
Rel
Hum
%
Delta-T
°C
Wind Press
QNH
hPa
Press
MSL
hPa
Rain
since 9 am
mm
Dir
 
Spd
km/h
Gust
km/h
Spd
kts
Gust
kts
31/11:30pm 15.3 10.2 -1.7 31 7.0 N 15 19 8 10 1018.6 1018.8 0.0
31/11:00pm 14.5 9.6 -0.8 35 6.4 NNW 15 17 8 9 1019.0 1019.2 0.0
31/10:30pm 13.3 9.7 0.7 42 5.4 NW 9 11 5 6 1019.4 1019.6 0.0
31/10:00pm 15.2 10.4 -0.1 35 6.5 NNW 15 17 8 9 1019.4 1019.6 0.0
31/09:30pm 15.1 10.7 0.5 37 6.3 N 13 15 7 8 1018.7 1018.9 0.0
31/09:00pm 15.9 11.6 0.9 36 6.6 N 13 17 7 9 1018.7 1018.9 0.0
31/08:30pm 14.6 10.7 1.2 40 5.8 NNW 11 13 6 7 1019.1 1019.3 0.0
31/08:00pm 15.0 11.1 1.2 39 6.0 NNW 11 13 6 7 1019.1 1019.3 0.0
31/07:30pm 14.8 10.9 1.3 40 5.9 NNW 11 13 6 7 1019.1 1019.3 0.0
31/07:00pm 15.2 11.7 1.4 39 6.1 N 9 11 5 6 1019.0 1019.2 0.0
31/06:30pm 16.8 13.2 0.9 34 7.0 N 9 11 5 6 1018.9 1019.1 0.0
31/06:00pm 18.9 14.6 1.0 30 8.0 NNW 13 15 7 8 1018.6 1018.8 0.0
31/05:30pm 20.4 15.7 0.8 27 8.9 NNW 15 20 8 11 1018.4 1018.6 0.0
31/05:00pm 21.1 16.0 0.9 26 9.2 NW 17 22 9 12 1018.3 1018.5 0.0
31/04:30pm 21.6 17.0 1.3 26 9.4 NNW 15 22 8 12 1018.4 1018.6 0.0
31/04:00pm 21.3 16.2 1.0 26 9.3 N 17 20 9 11 1018.6 1018.8 0.0
31/03:30pm 21.2 16.5 1.0 26 9.3 N 15 20 8 11 1019.1 1019.3 0.0
31/03:00pm 20.6 15.8 0.4 26 9.1 N 15 20 8 11 1019.4 1019.6 0.0
31/02:30pm 20.7 16.3 0.5 26 9.1 N 13 22 7 12 1019.6 1019.8 0.0
31/02:00pm 20.2 15.9 1.1 28 8.7 NNE 13 20 7 11 1019.9 1020.1 0.0
31/01:30pm 19.1 14.8 1.1 30 8.1 NNE 13 22 7 12 1020.6 1020.8 0.0
31/01:00pm 18.8 14.8 2.6 34 7.5 NNE 13 17 7 9 1021.4 1021.5 0.0
31/12:30pm 17.9 13.9 2.6 36 7.1 ENE 13 19 7 10 1021.9 1022.1 0.0
31/12:00pm 16.9 12.5 2.5 38 6.6 E 15 20 8 11 1022.4 1022.6 0.0
31/11:30am 16.2 11.7 2.2 39 6.3 ENE 15 24 8 13 1022.8 1023.0 0.0
31/11:00am 15.5 11.6 3.3 44 5.6 ESE 13 17 7 9 1023.2 1023.4 0.0
31/10:30am 14.8 10.1 3.0 45 5.4 ESE 17 20 9 11 1023.3 1023.5 0.0
31/10:00am 14.0 10.0 2.6 46 5.1 ESE 13 17 7 9 1023.2 1023.4 0.0
31/09:30am 12.7 9.3 1.7 47 4.8 SE 9 13 5 7 1023.3 1023.5 0.0
31/09:00am 9.7 7.7 0.1 51 3.9 CALM 0 0 0 0 1023.1 1023.3 0.0
31/08:30am 7.2 5.2 0.0 60 2.8 CALM 0 0 0 0 1023.0 1023.2 0.0
31/08:00am 4.8 2.7 -0.6 68 2.0 CALM 0 0 0 0 1022.9 1023.1 0.0
31/07:30am 4.0 1.9 -1.0 70 1.9 CALM 0 0 0 0 1022.3 1022.5 0.0
31/07:00am 4.5 1.2 -0.9 68 2.0 WSW 6 7 3 4 1022.0 1022.2 0.0
31/06:30am 5.0 2.9 -1.0 65 2.3 CALM 0 0 0 0 1021.9 1022.1 0.0
31/06:00am 5.0 2.5 -0.8 66 2.2 NW 2 7 1 4 1021.7 1021.8 0.0
31/05:30am 6.1 2.3 -0.8 61 2.6 WNW 9 11 5 6 1021.6 1021.7 0.0
31/05:00am 6.0 2.6 -0.9 61 2.6 WNW 7 9 4 5 1021.4 1021.5 0.0
31/04:30am 6.9 4.7 -1.3 56 3.1 CALM 0 0 0 0 1021.1 1021.2 0.0
31/04:00am 8.1 4.8 -1.4 51 3.6 WSW 6 7 3 4 1021.2 1021.3 0.0
31/03:30am 8.4 5.5 -1.1 51 3.7 W 4 7 2 4 1021.3 1021.4 0.0
31/03:00am 7.7 4.8 -0.8 55 3.3 WSW 4 7 2 4 1021.5 1021.6 0.0
31/02:30am 9.1 6.2 -1.0 49 4.0 WSW 4 7 2 4 1021.5 1021.6 0.0
31/02:00am 10.3 6.8 -1.4 44 4.6 W 7 9 4 5 1021.8 1021.9 0.0
31/01:30am 11.5 9.0 -1.3 41 5.1 WSW 2 7 1 4 1021.5 1021.6 0.0
31/01:00am 11.5 8.1 -0.9 42 5.0 W 7 9 4 5 1022.0 1022.2 0.0
31/12:30am 11.7 8.3 -0.8 42 5.1 WNW 7 11 4 6 1022.0 1022.2 0.0
31/12:00am 12.4 8.6 -0.8 40 5.4 WNW 9 13 5 7 1022.2 1022.4 0.0
 
Date/Time
EST
Temp
°C
App
Temp
°C
Dew
Point
Rel
Hum
%
Delta-T
°C
Wind Press
QNH
hPa
Press
MSL
hPa
Rain
since 9 am
mm
Dir
 
Spd
km/h
Gust
km/h
Spd
kts
Gust
kts
30/11:30pm 12.0 7.8 -0.8 41 5.2 WNW 11 15 6 8 1022.1 1022.3 0.0
30/11:00pm 12.7 7.7 -1.2 38 5.6 NW 15 20 8 11 1021.9 1022.1 0.0
30/10:30pm 12.3 8.5 -0.6 41 5.3 NW 9 13 5 7 1021.9 1022.1 0.0
30/10:00pm 12.1 7.5 -0.7 41 5.2 NW 13 15 7 8 1021.9 1022.1 0.0
30/09:30pm 12.0 8.2 -0.5 42 5.1 W 9 13 5 7 1021.8 1021.9 0.0
30/09:00pm 13.4 9.9 -1.0 37 5.9 NW 7 13 4 7 1021.5 1021.6 0.0
30/08:30pm 13.2 9.4 -0.8 38 5.8 WNW 9 13 5 7 1021.5 1021.6 0.0
30/08:00pm 14.5 9.5 -1.2 34 6.5 NW 15 19 8 10 1021.0 1021.1 0.0
30/07:30pm 14.9 10.7 -0.8 34 6.6 NW 11 17 6 9 1021.2 1021.3 0.0
30/07:00pm 15.5 11.3 -1.1 32 6.9 NW 11 17 6 9 1021.3 1021.4 0.0
30/06:30pm 16.1 11.4 -1.5 30 7.3 NW 13 20 7 11 1021.0 1021.1 0.0
30/06:00pm 16.8 11.8 -0.9 30 7.5 NW 15 20 8 11 1020.6 1020.8 0.0
30/05:30pm 17.6 12.2 -1.1 28 8.0 NW 17 24 9 13 1020.6 1020.8 0.0
30/05:00pm 17.9 11.9 -1.9 26 8.3 NNW 20 28 11 15 1020.7 1020.9 0.0
30/04:30pm 18.0 12.0 -1.8 26 8.4 NW 20 30 11 16 1021.0 1021.1 0.0
30/04:00pm 18.1 12.3 -1.7 26 8.4 NW 19 26 10 14 1020.7 1020.9 0.0
30/03:30pm 18.5 11.8 -1.3 26 8.5 NW 24 32 13 17 1021.1 1021.2 0.0
30/03:00pm 17.9 11.6 -1.3 27 8.2 NNW 22 32 12 17 1021.3 1021.4 0.0
30/02:30pm 18.5 11.8 -0.8 27 8.4 NW 24 33 13 18 1021.8 1021.9 0.0
30/02:00pm 17.5 10.9 -0.2 30 7.7 NNW 24 32 13 17 1022.0 1022.2 0.0
30/01:30pm 17.4 11.1 -0.8 29 7.8 NW 22 32 12 17 1022.7 1022.9 0.0
30/01:00pm 16.4 10.1 1.3 36 6.7 NW 24 32 13 17 1023.8 1024.0 0.0
30/12:30pm 15.7 9.4 1.8 39 6.2 NW 24 33 13 18 1024.2 1024.4 0.0
30/12:00pm 15.4 10.0 2.2 41 5.9 NNW 20 30 11 16 1024.6 1024.8 0.0
30/11:30am 14.6 8.5 2.5 44 5.4 NNW 24 32 13 17 1025.1 1025.3 0.0
30/11:00am 14.0 7.9 2.9 47 5.0 NNW 24 33 13 18 1025.5 1025.7 0.0
30/10:30am 13.1 7.1 3.2 51 4.5 NNW 24 35 13 19 1025.8 1026.0 0.0
30/10:00am 12.3 6.6 3.0 53 4.1 NNW 22 30 12 16 1026.0 1026.2 0.0
30/09:30am 11.0 6.0 3.5 60 3.3 NNW 19 24 10 13 1026.0 1026.2 0.0
30/09:00am 9.8 6.3 3.3 64 2.8 NNW 11 19 6 10 1025.6 1025.8 0.0
30/08:30am 8.1 4.1 2.6 68 2.3 NNW 13 17 7 9 1025.6 1025.8 0.0
30/08:00am 7.2 3.1 2.5 72 2.0 NNW 13 15 7 8 1025.3 1025.5 0.0
30/07:30am 7.1 3.1 2.8 74 1.8 N 13 19 7 10 1025.0 1025.2 0.0
30/07:00am 7.5 2.7 2.6 71 2.1 N 17 20 9 11 1024.9 1025.1 0.0
30/06:30am 5.7 1.6 2.0 77 1.5 N 13 17 7 9 1025.0 1025.2 0.0

Other Formats:

Comma delimited format used in spreadsheet applications
http://www.bom.gov.au/fwo/IDN60801/IDN60801.94686.axf

JavaScript Object Notation format (JSON) in row-major order
http://www.bom.gov.au/fwo/IDN60801/IDN60801.94686.json